Time,TemperatureF,DewpointF,PressureIn,WindDirection,WindDirectionDegrees,WindSpeedMPH,WindSpeedGustMPH,Humidity,HourlyPrecipIn,Conditions,Clouds,dailyrainin,SoftwareType,DateUTC
2013-07-26 00:02:00,80.1,75.6,28.49,SW,225,2.0,5.0,86,0.00,,,0.00,meteohub,2013-07-26 05:02:00,
2013-07-26 00:07:00,80.2,75.7,28.49,SE,135,2.0,5.0,86,0.00,,,0.00,meteohub,2013-07-26 05:07:00,
2013-07-26 00:12:00,80.2,75.7,28.49,SE,135,2.0,5.0,86,0.00,,,0.00,meteohub,2013-07-26 05:12:00,
2013-07-26 00:17:00,80.2,75.7,28.50,South,180,1.0,7.0,86,0.00,,,0.00,meteohub,2013-07-26 05:17:00,
2013-07-26 00:22:00,79.9,75.7,28.51,South,180,1.0,7.0,87,0.00,,,0.00,meteohub,2013-07-26 05:22:00,
2013-07-26 00:27:00,80.1,75.9,28.51,South,180,4.0,5.0,87,0.00,,,0.00,meteohub,2013-07-26 05:27:00,
2013-07-26 00:32:00,80.1,75.9,28.51,SW,225,5.0,5.0,87,0.00,,,0.00,meteohub,2013-07-26 05:32:00,
2013-07-26 00:38:00,80.1,75.6,28.51,South,180,10.0,11.0,86,0.00,,,0.00,meteohub,2013-07-26 05:38:00,
2013-07-26 00:43:00,80.2,75.4,28.50,South,180,5.0,11.0,85,0.00,,,0.00,meteohub,2013-07-26 05:43:00,
2013-07-26 00:48:00,80.1,74.5,28.50,South,180,11.0,13.0,83,0.00,,,0.00,meteohub,2013-07-26 05:48:00,
2013-07-26 00:53:00,80.1,74.5,28.49,SE,135,8.0,13.0,83,0.00,,,0.00,meteohub,2013-07-26 05:53:00,
2013-07-26 00:58:00,79.7,73.8,28.48,SSE,158,13.0,13.0,82,0.00,,,0.00,meteohub,2013-07-26 05:58:00,
2013-07-26 01:03:00,79.9,73.9,28.47,South,180,9.0,15.0,82,0.00,,,0.00,meteohub,2013-07-26 06:03:00,
2013-07-26 01:08:00,79.7,74.1,28.46,ESE,113,11.0,16.0,83,0.00,,,0.00,meteohub,2013-07-26 06:08:00,
2013-07-26 01:13:00,79.3,74.1,28.47,SW,225,8.0,16.0,84,0.00,,,0.00,meteohub,2013-07-26 06:13:00,
2013-07-26 01:18:00,79.0,74.1,28.46,SE,135,3.0,16.0,85,0.00,,,0.00,meteohub,2013-07-26 06:18:00,
2013-07-26 01:23:00,78.4,73.6,28.46,SSE,158,1.0,11.0,85,0.00,,,0.00,meteohub,2013-07-26 06:23:00,
2013-07-26 01:28:00,78.4,73.9,28.47,East,90,1.0,10.0,86,0.00,,,0.00,meteohub,2013-07-26 06:28:00,
2013-07-26 01:33:00,78.1,73.9,28.47,SE,135,1.0,6.0,87,0.00,,,0.00,meteohub,2013-07-26 06:33:00,
2013-07-26 01:38:00,78.1,74.3,28.47,NE,45,1.0,3.0,88,0.00,,,0.00,meteohub,2013-07-26 06:38:00,
2013-07-26 01:43:00,78.3,74.5,28.46,East,90,1.0,2.0,88,0.00,,,0.00,meteohub,2013-07-26 06:43:00,
2013-07-26 01:48:00,78.3,74.7,28.46,SE,135,3.0,3.0,89,0.00,,,0.00,meteohub,2013-07-26 06:48:00,
2013-07-26 01:53:00,78.4,74.7,28.45,East,90,4.0,4.0,88,0.00,,,0.00,meteohub,2013-07-26 06:53:00,
2013-07-26 01:58:00,78.8,74.7,28.46,South,180,6.0,8.0,87,0.00,,,0.00,meteohub,2013-07-26 06:58:00,
2013-07-26 02:03:00,78.8,74.3,28.45,SSE,158,5.0,8.0,86,0.00,,,0.00,meteohub,2013-07-26 07:03:00,
2013-07-26 02:08:00,78.8,74.3,28.45,South,180,2.0,8.0,86,0.00,,,0.00,meteohub,2013-07-26 07:08:00,
2013-07-26 02:13:00,78.8,74.3,28.45,SW,225,4.0,8.0,86,0.00,,,0.00,meteohub,2013-07-26 07:13:00,
2013-07-26 02:18:00,78.6,74.5,28.45,SW,225,4.0,7.0,87,0.00,,,0.00,meteohub,2013-07-26 07:18:00,
2013-07-26 02:23:00,78.3,74.1,28.45,SW,225,1.0,6.0,87,0.00,,,0.00,meteohub,2013-07-26 07:23:00,
2013-07-26 02:28:00,78.1,73.6,28.45,SE,135,1.0,6.0,86,0.00,,,0.00,meteohub,2013-07-26 07:28:00,
2013-07-26 02:33:00,78.1,73.6,28.45,SE,135,0.0,4.0,86,0.00,,,0.00,meteohub,2013-07-26 07:33:00,
2013-07-26 02:38:00,77.9,73.4,28.45,East,90,0.0,2.0,86,0.00,,,0.00,meteohub,2013-07-26 07:38:00,
2013-07-26 02:43:00,78.3,73.8,28.45,SE,135,0.0,1.0,86,0.00,,,0.00,meteohub,2013-07-26 07:43:00,
2013-07-26 02:48:00,78.1,73.6,28.45,SE,135,0.0,1.0,86,0.00,,,0.00,meteohub,2013-07-26 07:48:00,
2013-07-26 02:53:00,77.9,73.4,28.45,South,180,0.0,1.0,86,0.00,,,0.00,meteohub,2013-07-26 07:53:00,
2013-07-26 02:58:00,77.9,73.4,28.44,South,180,0.0,1.0,86,0.00,,,0.00,meteohub,2013-07-26 07:58:00,
2013-07-26 03:03:00,77.9,73.8,28.44,SW,225,1.0,1.0,87,0.00,,,0.00,meteohub,2013-07-26 08:03:00,
2013-07-26 03:08:00,78.1,73.9,28.44,NW,315,0.0,1.0,87,0.00,,,0.00,meteohub,2013-07-26 08:08:00,
2013-07-26 03:13:00,77.9,73.4,28.44,West,270,1.0,1.0,86,0.00,,,0.00,meteohub,2013-07-26 08:13:00,
2013-07-26 03:18:00,77.9,73.8,28.44,West,270,0.0,1.0,87,0.00,,,0.00,meteohub,2013-07-26 08:18:00,
2013-07-26 03:23:00,77.7,73.6,28.44,West,270,0.0,1.0,87,0.00,,,0.00,meteohub,2013-07-26 08:23:00,
2013-07-26 03:28:00,77.5,73.4,28.44,NW,315,0.0,1.0,87,0.00,,,0.00,meteohub,2013-07-26 08:28:00,
2013-07-26 03:33:00,77.5,73.4,28.44,SE,135,0.0,0.0,87,0.00,,,0.00,meteohub,2013-07-26 08:33:00,
2013-07-26 03:38:00,77.5,73.8,28.44,North,0,0.0,1.0,88,0.00,,,0.00,meteohub,2013-07-26 08:38:00,
2013-07-26 03:44:00,77.5,73.8,28.44,NE,45,0.0,1.0,88,0.00,,,0.00,meteohub,2013-07-26 08:44:00,
2013-07-26 03:49:00,77.2,73.8,28.44,NE,45,0.0,1.0,89,0.00,,,0.00,meteohub,2013-07-26 08:49:00,
2013-07-26 03:54:00,77.5,74.1,28.45,NE,45,0.0,0.0,89,0.00,,,0.00,meteohub,2013-07-26 08:54:00,
2013-07-26 03:59:00,77.5,74.3,28.45,NE,45,0.0,0.0,90,0.00,,,0.00,meteohub,2013-07-26 08:59:00,
2013-07-26 04:04:00,77.7,74.5,28.44,NE,45,0.0,0.0,90,0.00,,,0.00,meteohub,2013-07-26 09:04:00,
2013-07-26 04:09:00,77.5,74.3,28.44,NE,45,0.0,0.0,90,0.00,,,0.00,meteohub,2013-07-26 09:09:00,
2013-07-26 04:14:00,77.0,74.1,28.44,East,90,0.0,0.0,91,0.00,,,0.00,meteohub,2013-07-26 09:14:00,
2013-07-26 04:19:00,77.0,74.1,28.43,North,0,0.0,0.0,91,0.00,,,0.00,meteohub,2013-07-26 09:19:00,
2013-07-26 04:24:00,77.0,74.5,28.43,SE,135,0.0,0.0,92,0.00,,,0.00,meteohub,2013-07-26 09:24:00,
2013-07-26 04:29:00,77.0,74.5,28.43,SE,135,0.0,0.0,92,0.00,,,0.00,meteohub,2013-07-26 09:29:00,
2013-07-26 04:34:00,77.0,74.8,28.43,SE,135,0.0,0.0,93,0.00,,,0.00,meteohub,2013-07-26 09:34:00,
2013-07-26 04:39:00,76.8,74.7,28.43,East,90,0.0,0.0,93,0.00,,,0.00,meteohub,2013-07-26 09:39:00,
2013-07-26 04:44:00,77.0,74.8,28.43,East,90,0.0,1.0,93,0.00,,,0.00,meteohub,2013-07-26 09:44:00,
2013-07-26 04:49:00,77.0,74.8,28.43,NW,315,0.0,1.0,93,0.00,,,0.00,meteohub,2013-07-26 09:49:00,
2013-07-26 04:54:00,77.0,74.8,28.43,NE,45,0.0,2.0,93,0.00,,,0.00,meteohub,2013-07-26 09:54:00,
2013-07-26 04:59:00,77.0,74.8,28.43,South,180,0.0,2.0,93,0.01,,,0.01,meteohub,2013-07-26 09:59:00,
2013-07-26 05:04:00,76.8,74.7,28.43,South,180,0.0,2.0,93,0.01,,,0.01,meteohub,2013-07-26 10:04:00,
2013-07-26 05:09:00,76.8,75.0,28.43,South,180,0.0,0.0,94,0.01,,,0.01,meteohub,2013-07-26 10:09:00,
2013-07-26 05:14:00,76.6,75.0,28.43,South,180,1.0,1.0,95,0.01,,,0.01,meteohub,2013-07-26 10:14:00,
2013-07-26 05:19:00,76.5,74.8,28.44,West,270,2.0,2.0,95,0.01,,,0.01,meteohub,2013-07-26 10:19:00,
2013-07-26 05:24:00,76.6,75.0,28.45,West,270,2.0,2.0,95,0.01,,,0.01,meteohub,2013-07-26 10:24:00,
2013-07-26 05:29:00,76.6,75.0,28.46,West,270,2.0,2.0,95,0.01,,,0.01,meteohub,2013-07-26 10:29:00,
2013-07-26 05:34:00,76.5,74.8,28.47,NW,315,2.0,2.0,95,0.01,,,0.01,meteohub,2013-07-26 10:34:00,
2013-07-26 05:39:00,76.5,75.2,28.47,North,0,1.0,2.0,96,0.01,,,0.01,meteohub,2013-07-26 10:39:00,
2013-07-26 05:44:00,76.1,74.8,28.47,North,0,1.0,2.0,96,0.02,,,0.02,meteohub,2013-07-26 10:44:00,
2013-07-26 05:49:00,75.9,75.0,28.48,North,0,0.0,2.0,97,0.02,,,0.02,meteohub,2013-07-26 10:49:00,
2013-07-26 05:54:00,75.6,74.7,28.47,NE,45,1.0,2.0,97,0.06,,,0.06,meteohub,2013-07-26 10:54:00,
2013-07-26 05:59:00,75.4,74.5,28.46,East,90,0.0,1.0,97,0.05,,,0.06,meteohub,2013-07-26 10:59:00,
2013-07-26 06:04:00,75.2,74.3,28.47,North,0,0.0,2.0,97,0.05,,,0.06,meteohub,2013-07-26 11:04:00,
2013-07-26 06:09:00,75.0,74.1,28.46,East,90,0.0,2.0,97,0.05,,,0.06,meteohub,2013-07-26 11:09:00,
2013-07-26 06:14:00,74.8,73.9,28.46,SE,135,0.0,2.0,97,0.05,,,0.06,meteohub,2013-07-26 11:14:00,
2013-07-26 06:19:00,74.8,74.3,28.47,NE,45,0.0,0.0,98,0.05,,,0.06,meteohub,2013-07-26 11:19:00,
2013-07-26 06:24:00,74.8,74.3,28.46,East,90,0.0,0.0,98,0.05,,,0.06,meteohub,2013-07-26 11:24:00,
2013-07-26 06:29:00,74.8,74.3,28.46,East,90,1.0,1.0,98,0.05,,,0.06,meteohub,2013-07-26 11:29:00,
2013-07-26 06:34:00,74.7,74.3,28.46,East,90,1.0,1.0,99,0.05,,,0.06,meteohub,2013-07-26 11:34:00,
2013-07-26 06:40:00,74.8,74.5,28.46,East,90,1.0,1.0,99,0.05,,,0.06,meteohub,2013-07-26 11:40:00,
2013-07-26 06:45:00,74.8,74.5,28.46,East,90,0.0,1.0,99,0.04,,,0.06,meteohub,2013-07-26 11:45:00,
2013-07-26 06:50:00,74.7,74.3,28.46,East,90,1.0,1.0,99,0.02,,,0.06,meteohub,2013-07-26 11:50:00,
2013-07-26 06:55:00,74.7,74.3,28.46,East,90,0.0,1.0,99,0.00,,,0.06,meteohub,2013-07-26 11:55:00,
2013-07-26 07:00:00,74.7,74.3,28.46,SE,135,1.0,1.0,99,0.00,,,0.06,meteohub,2013-07-26 12:00:00,
2013-07-26 07:02:00,74.7,74.3,28.47,East,90,1.0,1.0,99,0.00,,,0.06,meteohub,2013-07-26 12:02:00,
2013-07-26 07:07:00,74.7,74.3,28.47,East,90,1.0,1.0,99,0.00,,,0.06,meteohub,2013-07-26 12:07:00,
2013-07-26 07:12:00,74.3,73.9,28.47,East,90,1.0,1.0,99,0.00,,,0.06,meteohub,2013-07-26 12:12:00,
2013-07-26 07:17:00,74.5,74.1,28.47,North,0,0.0,1.0,99,0.00,,,0.06,meteohub,2013-07-26 12:17:00,
2013-07-26 07:22:00,74.1,73.8,28.48,East,90,1.0,1.0,99,0.00,,,0.06,meteohub,2013-07-26 12:22:00,
2013-07-26 07:27:00,73.6,73.2,28.48,NE,45,1.0,1.0,99,0.00,,,0.06,meteohub,2013-07-26 12:27:00,
2013-07-26 07:32:00,73.6,73.2,28.48,East,90,1.0,1.0,99,0.00,,,0.06,meteohub,2013-07-26 12:32:00,
2013-07-26 07:37:00,73.2,72.9,28.48,East,90,1.0,1.0,99,0.00,,,0.06,meteohub,2013-07-26 12:37:00,
2013-07-26 07:42:00,73.4,73.0,28.48,SE,135,1.0,1.0,99,0.00,,,0.06,meteohub,2013-07-26 12:42:00,
2013-07-26 07:47:00,73.4,73.0,28.48,NE,45,0.0,1.0,99,0.00,,,0.06,meteohub,2013-07-26 12:47:00,
2013-07-26 07:52:00,73.9,73.6,28.48,East,90,0.0,1.0,99,0.00,,,0.06,meteohub,2013-07-26 12:52:00,
2013-07-26 07:57:00,73.8,73.4,28.48,North,0,1.0,1.0,99,0.00,,,0.06,meteohub,2013-07-26 12:57:00,
2013-07-26 08:02:00,73.6,73.2,28.48,NE,45,1.0,1.0,99,0.00,,,0.06,meteohub,2013-07-26 13:02:00,
2013-07-26 08:07:00,73.4,73.0,28.48,East,90,0.0,1.0,99,0.00,,,0.06,meteohub,2013-07-26 13:07:00,
2013-07-26 08:12:00,73.6,73.2,28.48,NE,45,2.0,2.0,99,0.00,,,0.06,meteohub,2013-07-26 13:12:00,
2013-07-26 08:17:00,73.4,73.0,28.48,East,90,0.0,2.0,99,0.00,,,0.06,meteohub,2013-07-26 13:17:00,
2013-07-26 08:22:00,73.8,73.4,28.48,East,90,0.0,2.0,99,0.00,,,0.06,meteohub,2013-07-26 13:22:00,
2013-07-26 08:27:00,73.8,73.4,28.48,East,90,0.0,2.0,99,0.00,,,0.06,meteohub,2013-07-26 13:27:00,
2013-07-26 08:32:00,73.8,73.4,28.48,NE,45,0.0,1.0,99,0.00,,,0.06,meteohub,2013-07-26 13:32:00,
2013-07-26 08:37:00,73.9,73.6,28.48,East,90,0.0,1.0,99,0.00,,,0.06,meteohub,2013-07-26 13:37:00,
2013-07-26 08:42:00,74.1,73.8,28.48,East,90,0.0,1.0,99,0.00,,,0.06,meteohub,2013-07-26 13:42:00,
2013-07-26 08:47:00,74.3,73.9,28.48,NE,45,0.0,1.0,99,0.00,,,0.06,meteohub,2013-07-26 13:47:00,
2013-07-26 08:52:00,74.8,74.5,28.48,NE,45,1.0,1.0,99,0.00,,,0.06,meteohub,2013-07-26 13:52:00,
2013-07-26 08:57:00,74.8,74.5,28.48,SE,135,1.0,1.0,99,0.00,,,0.06,meteohub,2013-07-26 13:57:00,
2013-07-26 09:02:00,75.0,74.7,28.48,NE,45,0.0,1.0,99,0.00,,,0.06,meteohub,2013-07-26 14:02:00,
2013-07-26 09:07:00,75.0,74.7,28.48,SE,135,0.0,1.0,99,0.00,,,0.06,meteohub,2013-07-26 14:07:00,
2013-07-26 09:12:00,75.4,75.0,28.48,East,90,0.0,1.0,99,0.00,,,0.06,meteohub,2013-07-26 14:12:00,
2013-07-26 09:17:00,75.7,75.2,28.48,SE,135,0.0,0.0,98,0.00,,,0.06,meteohub,2013-07-26 14:17:00,
2013-07-26 09:22:00,76.8,76.3,28.48,East,90,0.0,1.0,98,0.00,,,0.06,meteohub,2013-07-26 14:22:00,
2013-07-26 09:27:00,77.4,76.5,28.49,SE,135,0.0,1.0,97,0.00,,,0.06,meteohub,2013-07-26 14:27:00,
2013-07-26 09:33:00,78.3,76.6,28.48,East,90,0.0,1.0,95,0.00,,,0.06,meteohub,2013-07-26 14:33:00,
2013-07-26 09:38:00,78.4,75.2,28.49,North,0,1.0,1.0,90,0.00,,,0.06,meteohub,2013-07-26 14:38:00,
2013-07-26 09:43:00,78.4,75.2,28.49,South,180,0.0,1.0,90,0.00,,,0.06,meteohub,2013-07-26 14:43:00,
2013-07-26 09:48:00,78.8,75.2,28.49,WSW,248,4.0,4.0,89,0.00,,,0.06,meteohub,2013-07-26 14:48:00,
2013-07-26 09:53:00,79.2,75.4,28.49,West,270,4.0,4.0,88,0.00,,,0.06,meteohub,2013-07-26 14:53:00,
2013-07-26 09:58:00,79.5,75.6,28.49,North,0,1.0,4.0,88,0.00,,,0.06,meteohub,2013-07-26 14:58:00,
2013-07-26 10:03:00,79.5,75.6,28.49,West,270,5.0,5.0,88,0.00,,,0.06,meteohub,2013-07-26 15:03:00,
2013-07-26 10:08:00,79.7,75.6,28.49,North,0,4.0,4.0,87,0.00,,,0.06,meteohub,2013-07-26 15:08:00,
2013-07-26 10:13:00,79.9,75.4,28.49,NW,315,14.0,14.0,86,0.00,,,0.06,meteohub,2013-07-26 15:13:00,
2013-07-26 10:18:00,80.4,75.2,28.49,WNW,293,7.0,14.0,84,0.00,,,0.06,meteohub,2013-07-26 15:18:00,
2013-07-26 10:23:00,81.3,74.8,28.49,NW,315,10.0,14.0,81,0.00,,,0.06,meteohub,2013-07-26 15:23:00,
2013-07-26 10:28:00,81.3,74.1,28.49,North,0,11.0,14.0,79,0.00,,,0.06,meteohub,2013-07-26 15:28:00,
2013-07-26 10:33:00,80.8,73.9,28.49,NW,315,9.0,12.0,80,0.00,,,0.06,meteohub,2013-07-26 15:33:00,
2013-07-26 10:38:00,80.4,74.5,28.49,NW,315,10.0,11.0,82,0.00,,,0.06,meteohub,2013-07-26 15:38:00,
2013-07-26 10:43:00,80.8,73.9,28.50,SW,225,11.0,11.0,80,0.01,,,0.07,meteohub,2013-07-26 15:43:00,
2013-07-26 10:48:00,80.6,73.4,28.50,NW,315,4.0,12.0,79,0.01,,,0.07,meteohub,2013-07-26 15:48:00,
2013-07-26 10:53:00,81.5,73.6,28.49,WNW,293,10.0,13.0,77,0.01,,,0.07,meteohub,2013-07-26 15:53:00,
2013-07-26 10:58:00,81.7,73.4,28.49,NW,315,10.0,13.0,76,0.01,,,0.07,meteohub,2013-07-26 15:58:00,
2013-07-26 11:03:00,81.9,73.6,28.50,SW,225,6.0,13.0,76,0.01,,,0.07,meteohub,2013-07-26 16:03:00,
2013-07-26 11:08:00,82.2,73.6,28.50,North,0,11.0,14.0,75,0.01,,,0.07,meteohub,2013-07-26 16:08:00,
2013-07-26 11:13:00,81.9,73.2,28.50,West,270,6.0,16.0,75,0.01,,,0.07,meteohub,2013-07-26 16:13:00,
2013-07-26 11:18:00,82.0,72.5,28.51,North,0,12.0,16.0,73,0.01,,,0.07,meteohub,2013-07-26 16:18:00,
2013-07-26 11:23:00,82.8,73.6,28.51,WNW,293,15.0,16.0,74,0.01,,,0.07,meteohub,2013-07-26 16:23:00,
2013-07-26 11:28:00,82.0,72.5,28.51,South,180,9.0,15.0,73,0.01,,,0.07,meteohub,2013-07-26 16:28:00,
2013-07-26 11:33:00,82.0,72.1,28.51,WNW,293,11.0,15.0,72,0.01,,,0.07,meteohub,2013-07-26 16:33:00,
2013-07-26 11:38:00,82.0,72.5,28.51,South,180,5.0,17.0,73,0.01,,,0.07,meteohub,2013-07-26 16:38:00,
2013-07-26 11:43:00,82.6,73.0,28.51,WNW,293,8.0,17.0,73,0.00,,,0.07,meteohub,2013-07-26 16:43:00,
2013-07-26 11:48:00,82.0,72.5,28.51,North,0,7.0,17.0,73,0.00,,,0.07,meteohub,2013-07-26 16:48:00,
2013-07-26 11:53:00,82.4,72.9,28.51,NE,45,8.0,12.0,73,0.00,,,0.07,meteohub,2013-07-26 16:53:00,
2013-07-26 11:58:00,82.0,73.8,28.52,NW,315,14.0,14.0,76,0.00,,,0.07,meteohub,2013-07-26 16:58:00,
2013-07-26 12:03:00,81.9,73.2,28.51,NW,315,12.0,12.0,75,0.00,,,0.07,meteohub,2013-07-26 17:03:00,
2013-07-26 12:08:00,82.4,72.9,28.52,North,0,12.0,15.0,73,0.00,,,0.07,meteohub,2013-07-26 17:08:00,
2013-07-26 12:13:00,81.5,72.3,28.52,North,0,10.0,15.0,74,0.00,,,0.07,meteohub,2013-07-26 17:13:00,
2013-07-26 12:18:00,81.3,71.8,28.52,East,90,6.0,15.0,73,0.00,,,0.07,meteohub,2013-07-26 17:18:00,
2013-07-26 12:23:00,82.4,72.0,28.52,WNW,293,9.0,13.0,71,0.00,,,0.07,meteohub,2013-07-26 17:23:00,
2013-07-26 12:28:00,82.6,72.1,28.52,NW,315,8.0,13.0,71,0.00,,,0.07,meteohub,2013-07-26 17:28:00,
2013-07-26 12:33:00,82.4,72.0,28.52,West,270,9.0,12.0,71,0.00,,,0.07,meteohub,2013-07-26 17:33:00,
2013-07-26 12:38:00,82.8,71.6,28.52,North,0,9.0,12.0,69,0.00,,,0.07,meteohub,2013-07-26 17:38:00,
2013-07-26 12:43:00,84.0,71.4,28.52,North,0,10.0,13.0,66,0.00,,,0.07,meteohub,2013-07-26 17:43:00,
2013-07-26 12:48:00,83.8,70.9,28.52,North,0,10.0,15.0,65,0.00,,,0.07,meteohub,2013-07-26 17:48:00,
2013-07-26 12:54:00,84.0,70.5,28.52,North,0,14.0,18.0,64,0.00,,,0.07,meteohub,2013-07-26 17:54:00,
2013-07-26 12:59:00,83.8,70.3,28.53,NW,315,7.0,18.0,64,0.00,,,0.07,meteohub,2013-07-26 17:59:00,
2013-07-26 13:04:00,83.1,70.5,28.53,North,0,8.0,18.0,66,0.00,,,0.07,meteohub,2013-07-26 18:04:00,
2013-07-26 13:09:00,82.9,69.4,28.53,North,0,10.0,17.0,64,0.00,,,0.07,meteohub,2013-07-26 18:09:00,
2013-07-26 13:14:00,82.8,69.8,28.53,NW,315,9.0,16.0,65,0.00,,,0.07,meteohub,2013-07-26 18:14:00,
2013-07-26 13:19:00,82.4,69.4,28.53,North,0,8.0,14.0,65,0.00,,,0.07,meteohub,2013-07-26 18:19:00,
2013-07-26 13:24:00,82.0,69.1,28.53,NW,315,17.0,17.0,65,0.00,,,0.07,meteohub,2013-07-26 18:24:00,
2013-07-26 13:29:00,81.9,69.4,28.53,NE,45,15.0,17.0,66,0.00,,,0.07,meteohub,2013-07-26 18:29:00,
2013-07-26 13:34:00,82.0,69.6,28.53,NW,315,11.0,20.0,66,0.00,,,0.07,meteohub,2013-07-26 18:34:00,
2013-07-26 13:39:00,82.9,70.3,28.53,WNW,293,8.0,20.0,66,0.00,,,0.07,meteohub,2013-07-26 18:39:00,
2013-07-26 13:44:00,83.1,69.6,28.52,ENE,68,6.0,20.0,64,0.00,,,0.07,meteohub,2013-07-26 18:44:00,
2013-07-26 13:49:00,83.3,69.4,28.52,North,0,11.0,15.0,63,0.00,,,0.07,meteohub,2013-07-26 18:49:00,
2013-07-26 13:54:00,82.9,69.1,28.52,North,0,14.0,15.0,63,0.00,,,0.07,meteohub,2013-07-26 18:54:00,
2013-07-26 13:59:00,82.9,70.0,28.52,East,90,6.0,14.0,65,0.00,,,0.07,meteohub,2013-07-26 18:59:00,
2013-07-26 14:04:00,82.9,69.1,28.52,North,0,11.0,14.0,63,0.00,,,0.07,meteohub,2013-07-26 19:04:00,
2013-07-26 14:09:00,83.7,69.8,28.51,North,0,7.0,17.0,63,0.00,,,0.07,meteohub,2013-07-26 19:09:00,
2013-07-26 14:14:00,84.4,70.0,28.52,NE,45,7.0,17.0,62,0.00,,,0.07,meteohub,2013-07-26 19:14:00,
2013-07-26 14:19:00,84.4,69.4,28.52,NE,45,13.0,17.0,61,0.00,,,0.07,meteohub,2013-07-26 19:19:00,
2013-07-26 14:24:00,84.2,69.8,28.52,North,0,12.0,15.0,62,0.00,,,0.07,meteohub,2013-07-26 19:24:00,
2013-07-26 14:29:00,84.2,69.8,28.52,NW,315,10.0,15.0,62,0.00,,,0.07,meteohub,2013-07-26 19:29:00,
2013-07-26 14:34:00,85.5,70.9,28.52,North,0,4.0,15.0,62,0.00,,,0.07,meteohub,2013-07-26 19:34:00,
2013-07-26 14:39:00,85.3,70.3,28.52,NE,45,9.0,16.0,61,0.00,,,0.07,meteohub,2013-07-26 19:39:00,
2013-07-26 14:44:00,85.1,70.2,28.52,North,0,10.0,16.0,61,0.00,,,0.07,meteohub,2013-07-26 19:44:00,
2013-07-26 14:49:00,85.6,69.6,28.52,North,0,15.0,16.0,59,0.00,,,0.07,meteohub,2013-07-26 19:49:00,
2013-07-26 14:54:00,85.6,69.1,28.52,NE,45,11.0,16.0,58,0.00,,,0.07,meteohub,2013-07-26 19:54:00,
2013-07-26 14:59:00,85.6,69.1,28.52,NE,45,15.0,21.0,58,0.00,,,0.07,meteohub,2013-07-26 19:59:00,
2013-07-26 15:04:00,85.1,69.1,28.52,NW,315,14.0,21.0,59,0.00,,,0.07,meteohub,2013-07-26 20:04:00,
2013-07-26 15:09:00,85.8,69.3,28.52,North,0,14.0,17.0,58,0.00,,,0.07,meteohub,2013-07-26 20:09:00,
2013-07-26 15:14:00,85.8,68.9,28.52,North,0,10.0,15.0,57,0.00,,,0.07,meteohub,2013-07-26 20:14:00,
2013-07-26 15:19:00,86.9,68.7,28.52,NE,45,11.0,17.0,55,0.00,,,0.07,meteohub,2013-07-26 20:19:00,
2013-07-26 15:24:00,86.9,67.6,28.52,NE,45,15.0,18.0,53,0.00,,,0.07,meteohub,2013-07-26 20:24:00,
2013-07-26 15:29:00,86.4,67.8,28.52,North,0,13.0,18.0,54,0.00,,,0.07,meteohub,2013-07-26 20:29:00,
2013-07-26 15:34:00,86.9,67.6,28.52,NE,45,14.0,18.0,53,0.00,,,0.07,meteohub,2013-07-26 20:34:00,
2013-07-26 15:39:00,86.2,67.1,28.52,NE,45,12.0,18.0,53,0.00,,,0.07,meteohub,2013-07-26 20:39:00,
2013-07-26 15:44:00,86.5,68.0,28.51,NE,45,11.0,18.0,54,0.00,,,0.07,meteohub,2013-07-26 20:44:00,
2013-07-26 15:49:00,86.7,68.0,28.51,North,0,11.0,18.0,54,0.00,,,0.07,meteohub,2013-07-26 20:49:00,
2013-07-26 15:54:00,87.6,67.8,28.52,North,0,4.0,16.0,52,0.00,,,0.07,meteohub,2013-07-26 20:54:00,
2013-07-26 15:59:00,87.3,68.5,28.52,North,0,9.0,16.0,54,0.00,,,0.07,meteohub,2013-07-26 20:59:00,
2013-07-26 16:04:00,87.3,68.5,28.52,NE,45,9.0,16.0,54,0.00,,,0.07,meteohub,2013-07-26 21:04:00,
2013-07-26 16:09:00,87.4,68.2,28.51,North,0,15.0,15.0,53,0.00,,,0.07,meteohub,2013-07-26 21:09:00,
2013-07-26 16:15:00,88.2,67.1,28.51,West,270,13.0,15.0,50,0.00,,,0.07,meteohub,2013-07-26 21:15:00,
2013-07-26 16:20:00,88.3,66.7,28.51,NE,45,11.0,17.0,49,0.00,,,0.07,meteohub,2013-07-26 21:20:00,
2013-07-26 16:25:00,88.2,66.6,28.51,East,90,8.0,17.0,49,0.00,,,0.07,meteohub,2013-07-26 21:25:00,
2013-07-26 16:30:00,88.2,66.0,28.51,North,0,11.0,17.0,48,0.00,,,0.07,meteohub,2013-07-26 21:30:00,
2013-07-26 16:35:00,87.6,66.0,28.51,North,0,14.0,17.0,49,0.00,,,0.07,meteohub,2013-07-26 21:35:00,
2013-07-26 16:40:00,87.4,67.1,28.50,North,0,11.0,17.0,51,0.00,,,0.07,meteohub,2013-07-26 21:40:00,
2013-07-26 16:45:00,88.3,66.2,28.50,NE,45,8.0,17.0,48,0.00,,,0.07,meteohub,2013-07-26 21:45:00,
2013-07-26 16:50:00,88.5,66.4,28.50,North,0,7.0,17.0,48,0.00,,,0.07,meteohub,2013-07-26 21:50:00,
2013-07-26 16:55:00,88.7,65.8,28.51,North,0,11.0,17.0,47,0.00,,,0.07,meteohub,2013-07-26 21:55:00,
2013-07-26 17:00:00,89.2,66.9,28.50,NW,315,7.0,16.0,48,0.00,,,0.07,meteohub,2013-07-26 22:00:00,
2013-07-26 17:05:00,90.1,66.6,28.50,North,0,8.0,16.0,46,0.00,,,0.07,meteohub,2013-07-26 22:05:00,
2013-07-26 17:10:00,90.5,66.2,28.50,NW,315,4.0,15.0,45,0.00,,,0.07,meteohub,2013-07-26 22:10:00,
2013-07-26 17:15:00,90.3,65.5,28.50,North,0,11.0,15.0,44,0.00,,,0.07,meteohub,2013-07-26 22:15:00,
2013-07-26 17:20:00,90.7,66.4,28.50,NE,45,4.0,15.0,45,0.00,,,0.07,meteohub,2013-07-26 22:20:00,
2013-07-26 17:25:00,91.4,65.1,28.50,North,0,11.0,15.0,42,0.00,,,0.07,meteohub,2013-07-26 22:25:00,
2013-07-26 17:30:00,90.9,63.9,28.50,North,0,18.0,18.0,41,0.00,,,0.07,meteohub,2013-07-26 22:30:00,
2013-07-26 17:35:00,90.3,65.5,28.50,NW,315,7.0,14.0,44,0.00,,,0.07,meteohub,2013-07-26 22:35:00,
2013-07-26 17:40:00,89.6,65.5,28.50,NE,45,11.0,21.0,45,0.00,,,0.07,meteohub,2013-07-26 22:40:00,
2013-07-26 17:45:00,89.6,65.5,28.50,North,0,10.0,21.0,45,0.00,,,0.07,meteohub,2013-07-26 22:45:00,
2013-07-26 17:50:00,89.8,65.7,28.50,NW,315,11.0,21.0,45,0.00,,,0.07,meteohub,2013-07-26 22:50:00,
2013-07-26 17:55:00,90.1,65.8,28.50,North,0,10.0,15.0,45,0.00,,,0.07,meteohub,2013-07-26 22:55:00,
2013-07-26 18:00:00,89.2,65.1,28.49,North,0,11.0,15.0,45,0.00,,,0.07,meteohub,2013-07-26 23:00:00,
2013-07-26 18:05:00,88.7,65.3,28.50,NE,45,11.0,16.0,46,0.00,,,0.07,meteohub,2013-07-26 23:05:00,
2013-07-26 18:10:00,88.3,65.5,28.49,North,0,13.0,16.0,47,0.00,,,0.07,meteohub,2013-07-26 23:10:00,
2013-07-26 18:15:00,88.3,66.2,28.49,North,0,11.0,16.0,48,0.00,,,0.07,meteohub,2013-07-26 23:15:00,
2013-07-26 18:20:00,88.5,65.7,28.49,North,0,15.0,15.0,47,0.00,,,0.07,meteohub,2013-07-26 23:20:00,
2013-07-26 18:25:00,88.0,66.4,28.50,NE,45,14.0,16.0,49,0.00,,,0.07,meteohub,2013-07-26 23:25:00,
2013-07-26 18:30:00,88.0,66.4,28.49,West,270,4.0,16.0,49,0.00,,,0.07,meteohub,2013-07-26 23:30:00,
2013-07-26 18:35:00,87.4,66.6,28.49,North,0,8.0,16.0,50,0.00,,,0.07,meteohub,2013-07-26 23:35:00,
2013-07-26 18:40:00,87.6,66.7,28.49,NE,45,11.0,15.0,50,0.00,,,0.07,meteohub,2013-07-26 23:40:00,
2013-07-26 18:45:00,88.0,66.9,28.49,North,0,6.0,16.0,50,0.00,,,0.07,meteohub,2013-07-26 23:45:00,
2013-07-26 18:50:00,88.0,65.8,28.49,NE,45,17.0,17.0,48,0.00,,,0.07,meteohub,2013-07-26 23:50:00,
2013-07-26 18:55:00,87.8,66.2,28.49,NE,45,8.0,17.0,49,0.00,,,0.07,meteohub,2013-07-26 23:55:00,
2013-07-26 19:00:00,87.4,65.3,28.49,NE,45,11.0,17.0,48,0.00,,,0.07,meteohub,2013-07-27 00:00:00,
2013-07-26 19:05:00,87.1,64.9,28.49,North,0,11.0,19.0,48,0.00,,,0.00,meteohub,2013-07-27 00:05:00,
2013-07-26 19:10:00,87.3,65.8,28.49,NE,45,11.0,19.0,49,0.00,,,0.00,meteohub,2013-07-27 00:10:00,
2013-07-26 19:15:00,87.6,65.5,28.49,NW,315,12.0,19.0,48,0.00,,,0.00,meteohub,2013-07-27 00:15:00,
2013-07-26 19:20:00,87.3,66.4,28.49,NE,45,10.0,15.0,50,0.00,,,0.00,meteohub,2013-07-27 00:20:00,
2013-07-26 19:25:00,87.4,65.3,28.49,North,0,13.0,19.0,48,0.00,,,0.00,meteohub,2013-07-27 00:25:00,
2013-07-26 19:30:00,87.4,65.8,28.49,North,0,5.0,19.0,49,0.00,,,0.00,meteohub,2013-07-27 00:30:00,
2013-07-26 19:35:00,87.4,65.8,28.50,NE,45,2.0,19.0,49,0.00,,,0.00,meteohub,2013-07-27 00:35:00,
2013-07-26 19:40:00,87.1,65.7,28.50,WNW,293,12.0,15.0,49,0.00,,,0.00,meteohub,2013-07-27 00:40:00,
2013-07-26 19:45:00,87.1,65.7,28.50,North,0,10.0,15.0,49,0.00,,,0.00,meteohub,2013-07-27 00:45:00,
2013-07-26 19:50:00,86.7,65.8,28.50,NE,45,6.0,15.0,50,0.00,,,0.00,meteohub,2013-07-27 00:50:00,
2013-07-26 19:55:00,86.7,66.4,28.50,East,90,7.0,13.0,51,0.00,,,0.00,meteohub,2013-07-27 00:55:00,
2013-07-26 20:00:00,86.4,66.7,28.50,East,90,4.0,12.0,52,0.00,,,0.00,meteohub,2013-07-27 01:00:00,
2013-07-26 20:05:00,86.0,66.9,28.50,North,0,6.0,16.0,53,0.00,,,0.00,meteohub,2013-07-27 01:05:00,
2013-07-26 20:10:00,85.8,66.7,28.50,North,0,7.0,16.0,53,0.00,,,0.00,meteohub,2013-07-27 01:10:00,
2013-07-26 20:15:00,85.3,66.7,28.51,NE,45,4.0,10.0,54,0.00,,,0.00,meteohub,2013-07-27 01:15:00,
2013-07-26 20:20:00,85.1,66.6,28.51,NE,45,8.0,10.0,54,0.00,,,0.00,meteohub,2013-07-27 01:20:00,
2013-07-26 20:25:00,84.6,66.6,28.51,NE,45,7.0,10.0,55,0.00,,,0.00,meteohub,2013-07-27 01:25:00,
2013-07-26 20:30:00,84.0,66.6,28.52,NE,45,8.0,11.0,56,0.00,,,0.00,meteohub,2013-07-27 01:30:00,
2013-07-26 20:35:00,83.7,66.7,28.52,NE,45,7.0,11.0,57,0.00,,,0.00,meteohub,2013-07-27 01:35:00,
2013-07-26 20:40:00,83.5,67.1,28.53,North,0,4.0,11.0,58,0.00,,,0.00,meteohub,2013-07-27 01:40:00,
2013-07-26 20:46:00,82.9,66.6,28.53,East,90,1.0,9.0,58,0.00,,,0.00,meteohub,2013-07-27 01:46:00,
2013-07-26 20:51:00,82.4,66.6,28.53,East,90,8.0,9.0,59,0.00,,,0.00,meteohub,2013-07-27 01:51:00,
2013-07-26 20:56:00,82.2,66.9,28.53,North,0,3.0,9.0,60,0.00,,,0.00,meteohub,2013-07-27 01:56:00,
2013-07-26 21:01:00,82.0,67.3,28.53,North,0,6.0,9.0,61,0.00,,,0.00,meteohub,2013-07-27 02:01:00,
2013-07-26 21:06:00,81.7,67.5,28.53,NE,45,3.0,8.0,62,0.00,,,0.00,meteohub,2013-07-27 02:06:00,
2013-07-26 21:11:00,81.1,67.3,28.54,ENE,68,1.0,6.0,63,0.00,,,0.00,meteohub,2013-07-27 02:11:00,
2013-07-26 21:16:00,81.0,67.6,28.54,NE,45,1.0,6.0,64,0.00,,,0.00,meteohub,2013-07-27 02:16:00,
2013-07-26 21:21:00,80.8,68.0,28.54,NW,315,1.0,4.0,65,0.00,,,0.00,meteohub,2013-07-27 02:21:00,
2013-07-26 21:26:00,80.6,68.2,28.55,NE,45,1.0,2.0,66,0.00,,,0.00,meteohub,2013-07-27 02:26:00,
2013-07-26 21:31:00,80.6,68.2,28.55,NE,45,1.0,4.0,66,0.00,,,0.00,meteohub,2013-07-27 02:31:00,
2013-07-26 21:36:00,80.1,67.6,28.55,North,0,1.0,4.0,66,0.00,,,0.00,meteohub,2013-07-27 02:36:00,
2013-07-26 21:41:00,80.1,68.2,28.55,NE,45,1.0,4.0,67,0.00,,,0.00,meteohub,2013-07-27 02:41:00,
2013-07-26 21:46:00,79.9,68.0,28.56,North,0,1.0,4.0,67,0.00,,,0.00,meteohub,2013-07-27 02:46:00,
2013-07-26 21:51:00,79.7,67.8,28.56,NE,45,1.0,1.0,67,0.00,,,0.00,meteohub,2013-07-27 02:51:00,
2013-07-26 21:56:00,79.9,68.0,28.56,North,0,1.0,1.0,67,0.00,,,0.00,meteohub,2013-07-27 02:56:00,
2013-07-26 22:01:00,79.3,67.8,28.56,NE,45,1.0,1.0,68,0.00,,,0.00,meteohub,2013-07-27 03:01:00,
2013-07-26 22:07:00,79.5,68.0,28.57,North,0,4.0,4.0,68,0.00,,,0.00,meteohub,2013-07-27 03:07:00,
2013-07-26 22:12:00,79.3,67.8,28.57,North,0,3.0,4.0,68,0.00,,,0.00,meteohub,2013-07-27 03:12:00,
2013-07-26 22:17:00,79.3,67.8,28.57,NW,315,2.0,8.0,68,0.00,,,0.00,meteohub,2013-07-27 03:17:00,
2013-07-26 22:22:00,79.2,68.2,28.57,North,0,1.0,8.0,69,0.00,,,0.00,meteohub,2013-07-27 03:22:00,
2013-07-26 22:27:00,79.0,68.0,28.57,North,0,4.0,8.0,69,0.00,,,0.00,meteohub,2013-07-27 03:27:00,
2013-07-26 22:32:00,79.0,68.0,28.57,North,0,1.0,9.0,69,0.00,,,0.00,meteohub,2013-07-27 03:32:00,
2013-07-26 22:37:00,79.0,68.0,28.57,NW,315,2.0,9.0,69,0.00,,,0.00,meteohub,2013-07-27 03:37:00,
2013-07-26 22:42:00,78.8,68.2,28.57,North,0,1.0,9.0,70,0.00,,,0.00,meteohub,2013-07-27 03:42:00,
2013-07-26 22:47:00,78.8,68.2,28.57,East,90,2.0,6.0,70,0.00,,,0.00,meteohub,2013-07-27 03:47:00,
2013-07-26 22:52:00,78.6,68.0,28.57,NE,45,5.0,6.0,70,0.00,,,0.00,meteohub,2013-07-27 03:52:00,
2013-07-26 22:57:00,78.6,68.4,28.57,North,0,1.0,5.0,71,0.00,,,0.00,meteohub,2013-07-27 03:57:00,
2013-07-26 23:01:00,78.4,68.2,28.58,North,0,2.0,5.0,71,0.00,,,0.00,meteohub,2013-07-27 04:01:00,
2013-07-26 23:02:00,78.6,68.4,28.58,North,0,1.0,5.0,71,0.00,,,0.00,meteohub,2013-07-27 04:02:00,
2013-07-26 23:07:00,78.3,68.5,28.58,NE,45,3.0,5.0,72,0.00,,,0.00,meteohub,2013-07-27 04:07:00,
2013-07-26 23:12:00,78.3,68.5,28.58,NW,315,2.0,7.0,72,0.00,,,0.00,meteohub,2013-07-27 04:12:00,
2013-07-26 23:17:00,78.1,68.4,28.58,North,0,1.0,7.0,72,0.00,,,0.00,meteohub,2013-07-27 04:17:00,
2013-07-26 23:22:00,77.9,68.5,28.58,North,0,1.0,7.0,73,0.00,,,0.00,meteohub,2013-07-27 04:22:00,
2013-07-26 23:27:00,77.9,68.5,28.58,North,0,1.0,5.0,73,0.00,,,0.00,meteohub,2013-07-27 04:27:00,
2013-07-26 23:32:00,77.7,68.4,28.59,NW,315,4.0,4.0,73,0.00,,,0.00,meteohub,2013-07-27 04:32:00,
2013-07-26 23:37:00,77.4,68.0,28.59,North,0,1.0,4.0,73,0.00,,,0.00,meteohub,2013-07-27 04:37:00,
2013-07-26 23:42:00,77.4,68.4,28.59,North,0,1.0,4.0,74,0.00,,,0.00,meteohub,2013-07-27 04:42:00,
2013-07-26 23:47:00,77.2,68.2,28.59,North,0,1.0,4.0,74,0.00,,,0.00,meteohub,2013-07-27 04:47:00,
2013-07-26 23:52:00,77.2,68.7,28.59,North,0,1.0,2.0,75,0.00,,,0.00,meteohub,2013-07-27 04:52:00,
2013-07-26 23:57:00,77.0,68.9,28.59,North,0,1.0,2.0,76,0.00,,,0.00,meteohub,2013-07-27 04:57:00,